sensor_id;sensor_type;location;lat;lon;timestamp;pressure;altitude;pressure_sealevel;temperature
65569;BMP180;52211;50.154;8.682;2023-07-31T00:00:31;99856.00;;;23.70
65569;BMP180;52211;50.154;8.682;2023-07-31T00:02:59;99851.00;;;23.70
65569;BMP180;52211;50.154;8.682;2023-07-31T00:05:26;99847.00;;;23.60
65569;BMP180;52211;50.154;8.682;2023-07-31T00:07:52;99853.00;;;23.60
65569;BMP180;52211;50.154;8.682;2023-07-31T00:10:23;99847.00;;;23.50
65569;BMP180;52211;50.154;8.682;2023-07-31T00:12:52;99849.00;;;23.40
65569;BMP180;52211;50.154;8.682;2023-07-31T00:15:20;99860.00;;;23.40
65569;BMP180;52211;50.154;8.682;2023-07-31T00:17:51;99848.00;;;23.30
65569;BMP180;52211;50.154;8.682;2023-07-31T00:20:24;99851.00;;;23.30
65569;BMP180;52211;50.154;8.682;2023-07-31T00:22:53;99851.00;;;23.30
65569;BMP180;52211;50.154;8.682;2023-07-31T00:25:20;99857.00;;;23.30
65569;BMP180;52211;50.154;8.682;2023-07-31T00:27:49;99850.00;;;23.30
65569;BMP180;52211;50.154;8.682;2023-07-31T00:30:18;99847.00;;;23.20
65569;BMP180;52211;50.154;8.682;2023-07-31T00:32:45;99851.00;;;23.20
65569;BMP180;52211;50.154;8.682;2023-07-31T00:35:15;99847.00;;;23.20
65569;BMP180;52211;50.154;8.682;2023-07-31T00:37:41;99845.00;;;23.20
65569;BMP180;52211;50.154;8.682;2023-07-31T00:40:09;99850.00;;;23.20
65569;BMP180;52211;50.154;8.682;2023-07-31T00:42:36;99846.00;;;23.20
65569;BMP180;52211;50.154;8.682;2023-07-31T00:45:03;99849.00;;;23.20
65569;BMP180;52211;50.154;8.682;2023-07-31T00:47:30;99846.00;;;23.20
65569;BMP180;52211;50.154;8.682;2023-07-31T00:49:57;99847.00;;;23.10
65569;BMP180;52211;50.154;8.682;2023-07-31T00:52:24;99840.00;;;23.10
65569;BMP180;52211;50.154;8.682;2023-07-31T00:54:53;99835.00;;;23.10
65569;BMP180;52211;50.154;8.682;2023-07-31T00:57:27;99836.00;;;23.10
65569;BMP180;52211;50.154;8.682;2023-07-31T00:59:59;99842.00;;;23.10
65569;BMP180;52211;50.154;8.682;2023-07-31T01:02:28;99841.00;;;23.10
65569;BMP180;52211;50.154;8.682;2023-07-31T01:04:56;99841.00;;;23.00
65569;BMP180;52211;50.154;8.682;2023-07-31T01:07:35;99845.00;;;23.00
65569;BMP180;52211;50.154;8.682;2023-07-31T01:10:45;99838.00;;;22.90
65569;BMP180;52211;50.154;8.682;2023-07-31T01:13:16;99827.00;;;23.00
65569;BMP180;52211;50.154;8.682;2023-07-31T01:15:49;99837.00;;;22.90
65569;BMP180;52211;50.154;8.682;2023-07-31T01:18:18;99830.00;;;22.90
65569;BMP180;52211;50.154;8.682;2023-07-31T01:20:57;99820.00;;;22.90
65569;BMP180;52211;50.154;8.682;2023-07-31T01:26:48;99821.00;;;22.90
65569;BMP180;52211;50.154;8.682;2023-07-31T01:29:34;99825.00;;;22.90
65569;BMP180;52211;50.154;8.682;2023-07-31T01:32:07;99832.00;;;22.90
65569;BMP180;52211;50.154;8.682;2023-07-31T01:34:39;99823.00;;;22.90
65569;BMP180;52211;50.154;8.682;2023-07-31T01:37:10;99817.00;;;22.90
65569;BMP180;52211;50.154;8.682;2023-07-31T01:39:37;99812.00;;;22.90
65569;BMP180;52211;50.154;8.682;2023-07-31T01:42:04;99811.00;;;22.90
65569;BMP180;52211;50.154;8.682;2023-07-31T01:44:34;99801.00;;;22.90
65569;BMP180;52211;50.154;8.682;2023-07-31T01:47:06;99801.00;;;22.90
65569;BMP180;52211;50.154;8.682;2023-07-31T01:49:33;99793.00;;;22.90
65569;BMP180;52211;50.154;8.682;2023-07-31T01:52:02;99793.00;;;22.90
65569;BMP180;52211;50.154;8.682;2023-07-31T01:54:29;99790.00;;;22.90
65569;BMP180;52211;50.154;8.682;2023-07-31T01:56:56;99796.00;;;22.90
65569;BMP180;52211;50.154;8.682;2023-07-31T01:59:26;99787.00;;;23.00
65569;BMP180;52211;50.154;8.682;2023-07-31T02:01:55;99788.00;;;23.00
65569;BMP180;52211;50.154;8.682;2023-07-31T02:04:27;99783.00;;;23.00
65569;BMP180;52211;50.154;8.682;2023-07-31T02:06:56;99780.00;;;23.00
65569;BMP180;52211;50.154;8.682;2023-07-31T02:09:28;99781.00;;;23.00
65569;BMP180;52211;50.154;8.682;2023-07-31T02:12:03;99780.00;;;23.00
65569;BMP180;52211;50.154;8.682;2023-07-31T02:14:35;99774.00;;;23.00
65569;BMP180;52211;50.154;8.682;2023-07-31T02:17:04;99779.00;;;23.10
65569;BMP180;52211;50.154;8.682;2023-07-31T02:19:36;99768.00;;;23.10
65569;BMP180;52211;50.154;8.682;2023-07-31T02:22:07;99777.00;;;23.10
65569;BMP180;52211;50.154;8.682;2023-07-31T02:24:34;99769.00;;;23.10
65569;BMP180;52211;50.154;8.682;2023-07-31T02:27:03;99767.00;;;23.10
65569;BMP180;52211;50.154;8.682;2023-07-31T02:29:33;99768.00;;;23.10
65569;BMP180;52211;50.154;8.682;2023-07-31T02:32:00;99771.00;;;23.10
65569;BMP180;52211;50.154;8.682;2023-07-31T02:34:26;99778.00;;;23.20
65569;BMP180;52211;50.154;8.682;2023-07-31T02:36:58;99775.00;;;23.20
65569;BMP180;52211;50.154;8.682;2023-07-31T02:39:30;99772.00;;;23.20
65569;BMP180;52211;50.154;8.682;2023-07-31T02:42:00;99779.00;;;23.20
65569;BMP180;52211;50.154;8.682;2023-07-31T02:44:27;99777.00;;;23.30
65569;BMP180;52211;50.154;8.682;2023-07-31T02:46:54;99783.00;;;23.30
65569;BMP180;52211;50.154;8.682;2023-07-31T02:49:23;99782.00;;;23.30
65569;BMP180;52211;50.154;8.682;2023-07-31T02:51:52;99783.00;;;23.30
65569;BMP180;52211;50.154;8.682;2023-07-31T02:54:19;99773.00;;;23.30
65569;BMP180;52211;50.154;8.682;2023-07-31T02:56:50;99778.00;;;23.30
65569;BMP180;52211;50.154;8.682;2023-07-31T02:59:23;99783.00;;;23.30
65569;BMP180;52211;50.154;8.682;2023-07-31T03:01:52;99782.00;;;23.30
65569;BMP180;52211;50.154;8.682;2023-07-31T03:04:18;99780.00;;;23.40
65569;BMP180;52211;50.154;8.682;2023-07-31T03:06:48;99775.00;;;23.40
65569;BMP180;52211;50.154;8.682;2023-07-31T03:09:17;99766.00;;;23.40
65569;BMP180;52211;50.154;8.682;2023-07-31T03:11:44;99767.00;;;23.40
65569;BMP180;52211;50.154;8.682;2023-07-31T03:14:11;99779.00;;;23.40
65569;BMP180;52211;50.154;8.682;2023-07-31T03:16:38;99779.00;;;23.40
65569;BMP180;52211;50.154;8.682;2023-07-31T03:19:08;99774.00;;;23.30
65569;BMP180;52211;50.154;8.682;2023-07-31T03:21:35;99771.00;;;23.40
65569;BMP180;52211;50.154;8.682;2023-07-31T03:24:08;99769.00;;;23.30
65569;BMP180;52211;50.154;8.682;2023-07-31T03:26:38;99774.00;;;23.30
65569;BMP180;52211;50.154;8.682;2023-07-31T03:29:08;99773.00;;;23.30
65569;BMP180;52211;50.154;8.682;2023-07-31T03:31:37;99764.00;;;23.30
65569;BMP180;52211;50.154;8.682;2023-07-31T03:34:04;99768.00;;;23.30
65569;BMP180;52211;50.154;8.682;2023-07-31T03:36:34;99772.00;;;23.20
65569;BMP180;52211;50.154;8.682;2023-07-31T03:39:01;99775.00;;;23.20
65569;BMP180;52211;50.154;8.682;2023-07-31T03:41:28;99769.00;;;23.20
65569;BMP180;52211;50.154;8.682;2023-07-31T03:43:57;99773.00;;;23.20
65569;BMP180;52211;50.154;8.682;2023-07-31T03:46:25;99771.00;;;23.20
65569;BMP180;52211;50.154;8.682;2023-07-31T03:48:58;99779.00;;;23.20
65569;BMP180;52211;50.154;8.682;2023-07-31T03:51:28;99770.00;;;23.20
65569;BMP180;52211;50.154;8.682;2023-07-31T03:53:55;99768.00;;;23.20
65569;BMP180;52211;50.154;8.682;2023-07-31T03:56:24;99771.00;;;23.20
65569;BMP180;52211;50.154;8.682;2023-07-31T03:58:51;99777.00;;;23.20
65569;BMP180;52211;50.154;8.682;2023-07-31T04:01:20;99783.00;;;23.20
65569;BMP180;52211;50.154;8.682;2023-07-31T04:03:47;99782.00;;;23.20
65569;BMP180;52211;50.154;8.682;2023-07-31T04:06:16;99776.00;;;23.20
65569;BMP180;52211;50.154;8.682;2023-07-31T04:08:45;99777.00;;;23.20
65569;BMP180;52211;50.154;8.682;2023-07-31T04:11:16;99765.00;;;23.20
65569;BMP180;52211;50.154;8.682;2023-07-31T04:13:46;99770.00;;;23.20
65569;BMP180;52211;50.154;8.682;2023-07-31T04:16:13;99764.00;;;23.20
65569;BMP180;52211;50.154;8.682;2023-07-31T04:18:44;99764.00;;;23.20
65569;BMP180;52211;50.154;8.682;2023-07-31T04:21:11;99768.00;;;23.20
65569;BMP180;52211;50.154;8.682;2023-07-31T04:23:43;99749.00;;;23.20
65569;BMP180;52211;50.154;8.682;2023-07-31T04:26:09;99750.00;;;23.20
65569;BMP180;52211;50.154;8.682;2023-07-31T04:28:36;99755.00;;;23.20
65569;BMP180;52211;50.154;8.682;2023-07-31T04:31:06;99748.00;;;23.20
65569;BMP180;52211;50.154;8.682;2023-07-31T04:33:37;99744.00;;;23.30
65569;BMP180;52211;50.154;8.682;2023-07-31T04:36:04;99740.00;;;23.30
65569;BMP180;52211;50.154;8.682;2023-07-31T04:38:31;99740.00;;;23.30
65569;BMP180;52211;50.154;8.682;2023-07-31T04:41:02;99743.00;;;23.30
65569;BMP180;52211;50.154;8.682;2023-07-31T04:43:32;99746.00;;;23.30
65569;BMP180;52211;50.154;8.682;2023-07-31T04:45:59;99743.00;;;23.30
65569;BMP180;52211;50.154;8.682;2023-07-31T04:48:28;99747.00;;;23.30
65569;BMP180;52211;50.154;8.682;2023-07-31T04:51:00;99753.00;;;23.30
65569;BMP180;52211;50.154;8.682;2023-07-31T04:53:26;99747.00;;;23.30
65569;BMP180;52211;50.154;8.682;2023-07-31T04:55:58;99745.00;;;23.20
65569;BMP180;52211;50.154;8.682;2023-07-31T04:58:25;99743.00;;;23.20
65569;BMP180;52211;50.154;8.682;2023-07-31T05:00:54;99754.00;;;23.30
65569;BMP180;52211;50.154;8.682;2023-07-31T05:03:23;99750.00;;;23.30
65569;BMP180;52211;50.154;8.682;2023-07-31T05:05:53;99752.00;;;23.30
65569;BMP180;52211;50.154;8.682;2023-07-31T05:08:20;99742.00;;;23.30
65569;BMP180;52211;50.154;8.682;2023-07-31T05:10:52;99745.00;;;23.30
65569;BMP180;52211;50.154;8.682;2023-07-31T05:13:19;99746.00;;;23.40
65569;BMP180;52211;50.154;8.682;2023-07-31T05:15:53;99740.00;;;23.40
65569;BMP180;52211;50.154;8.682;2023-07-31T05:18:20;99741.00;;;23.40
65569;BMP180;52211;50.154;8.682;2023-07-31T05:20:47;99748.00;;;23.40
65569;BMP180;52211;50.154;8.682;2023-07-31T05:23:19;99754.00;;;23.40
65569;BMP180;52211;50.154;8.682;2023-07-31T05:25:48;99759.00;;;23.40
65569;BMP180;52211;50.154;8.682;2023-07-31T05:28:17;99754.00;;;23.40
65569;BMP180;52211;50.154;8.682;2023-07-31T05:30:46;99756.00;;;23.40
65569;BMP180;52211;50.154;8.682;2023-07-31T05:33:15;99760.00;;;23.40
65569;BMP180;52211;50.154;8.682;2023-07-31T05:35:42;99745.00;;;23.40
65569;BMP180;52211;50.154;8.682;2023-07-31T05:38:13;99744.00;;;23.40
65569;BMP180;52211;50.154;8.682;2023-07-31T05:40:42;99741.00;;;23.30
65569;BMP180;52211;50.154;8.682;2023-07-31T05:43:11;99747.00;;;23.30
65569;BMP180;52211;50.154;8.682;2023-07-31T05:45:42;99734.00;;;23.30
65569;BMP180;52211;50.154;8.682;2023-07-31T05:48:09;99734.00;;;23.30
65569;BMP180;52211;50.154;8.682;2023-07-31T05:50:40;99740.00;;;23.30
65569;BMP180;52211;50.154;8.682;2023-07-31T05:53:07;99742.00;;;23.30
65569;BMP180;52211;50.154;8.682;2023-07-31T05:55:37;99744.00;;;23.30
65569;BMP180;52211;50.154;8.682;2023-07-31T05:58:04;99732.00;;;23.30
65569;BMP180;52211;50.154;8.682;2023-07-31T06:00:33;99733.00;;;23.20
65569;BMP180;52211;50.154;8.682;2023-07-31T06:03:05;99728.00;;;23.20
65569;BMP180;52211;50.154;8.682;2023-07-31T06:05:34;99723.00;;;23.30
65569;BMP180;52211;50.154;8.682;2023-07-31T06:08:03;99727.00;;;23.30
65569;BMP180;52211;50.154;8.682;2023-07-31T06:10:31;99720.00;;;23.30
65569;BMP180;52211;50.154;8.682;2023-07-31T06:12:58;99729.00;;;23.30
65569;BMP180;52211;50.154;8.682;2023-07-31T06:15:28;99719.00;;;23.30
65569;BMP180;52211;50.154;8.682;2023-07-31T06:17:54;99715.00;;;23.30
65569;BMP180;52211;50.154;8.682;2023-07-31T06:20:21;99714.00;;;23.30
65569;BMP180;52211;50.154;8.682;2023-07-31T06:22:49;99720.00;;;23.30
65569;BMP180;52211;50.154;8.682;2023-07-31T06:25:18;99722.00;;;23.30
65569;BMP180;52211;50.154;8.682;2023-07-31T06:27:45;99728.00;;;23.40
65569;BMP180;52211;50.154;8.682;2023-07-31T06:30:20;99726.00;;;23.40
65569;BMP180;52211;50.154;8.682;2023-07-31T06:32:50;99722.00;;;23.40
65569;BMP180;52211;50.154;8.682;2023-07-31T06:35:19;99718.00;;;23.40
65569;BMP180;52211;50.154;8.682;2023-07-31T06:37:49;99711.00;;;23.40
65569;BMP180;52211;50.154;8.682;2023-07-31T06:40:18;99712.00;;;23.40
65569;BMP180;52211;50.154;8.682;2023-07-31T06:42:46;99716.00;;;23.40
65569;BMP180;52211;50.154;8.682;2023-07-31T06:45:13;99730.00;;;23.40
65569;BMP180;52211;50.154;8.682;2023-07-31T06:47:39;99732.00;;;23.50
65569;BMP180;52211;50.154;8.682;2023-07-31T06:50:08;99733.00;;;23.50
65569;BMP180;52211;50.154;8.682;2023-07-31T06:52:42;99726.00;;;23.50
65569;BMP180;52211;50.154;8.682;2023-07-31T06:55:21;99724.00;;;23.50
65569;BMP180;52211;50.154;8.682;2023-07-31T06:57:50;99731.00;;;23.50
65569;BMP180;52211;50.154;8.682;2023-07-31T07:00:22;99725.00;;;23.60
65569;BMP180;52211;50.154;8.682;2023-07-31T07:02:49;99719.00;;;23.60
65569;BMP180;52211;50.154;8.682;2023-07-31T07:05:18;99724.00;;;23.70
65569;BMP180;52211;50.154;8.682;2023-07-31T07:07:50;99735.00;;;23.70
65569;BMP180;52211;50.154;8.682;2023-07-31T07:10:20;99731.00;;;23.70
65569;BMP180;52211;50.154;8.682;2023-07-31T07:12:51;99721.00;;;23.70
65569;BMP180;52211;50.154;8.682;2023-07-31T07:15:18;99723.00;;;23.70
65569;BMP180;52211;50.154;8.682;2023-07-31T07:17:49;99717.00;;;23.70
65569;BMP180;52211;50.154;8.682;2023-07-31T07:20:16;99715.00;;;23.70
65569;BMP180;52211;50.154;8.682;2023-07-31T07:22:43;99714.00;;;23.80
65569;BMP180;52211;50.154;8.682;2023-07-31T07:25:11;99699.00;;;23.80
65569;BMP180;52211;50.154;8.682;2023-07-31T07:27:37;99695.00;;;23.80
65569;BMP180;52211;50.154;8.682;2023-07-31T07:30:07;99694.00;;;23.90
65569;BMP180;52211;50.154;8.682;2023-07-31T07:32:34;99683.00;;;23.90
65569;BMP180;52211;50.154;8.682;2023-07-31T07:35:02;99689.00;;;24.00
65569;BMP180;52211;50.154;8.682;2023-07-31T07:37:29;99694.00;;;24.10
65569;BMP180;52211;50.154;8.682;2023-07-31T07:39:58;99683.00;;;24.10
65569;BMP180;52211;50.154;8.682;2023-07-31T07:42:28;99678.00;;;24.10
65569;BMP180;52211;50.154;8.682;2023-07-31T07:44:55;99674.00;;;24.20
65569;BMP180;52211;50.154;8.682;2023-07-31T07:47:27;99676.00;;;24.20
65569;BMP180;52211;50.154;8.682;2023-07-31T07:50:00;99671.00;;;24.20
65569;BMP180;52211;50.154;8.682;2023-07-31T07:52:27;99672.00;;;24.30
65569;BMP180;52211;50.154;8.682;2023-07-31T07:54:57;99675.00;;;24.40
65569;BMP180;52211;50.154;8.682;2023-07-31T07:57:27;99667.00;;;24.50
65569;BMP180;52211;50.154;8.682;2023-07-31T07:59:57;99678.00;;;24.50
65569;BMP180;52211;50.154;8.682;2023-07-31T08:02:28;99683.00;;;24.50
65569;BMP180;52211;50.154;8.682;2023-07-31T08:04:57;99666.00;;;24.60
65569;BMP180;52211;50.154;8.682;2023-07-31T08:07:27;99666.00;;;24.50
65569;BMP180;52211;50.154;8.682;2023-07-31T08:09:53;99684.00;;;24.60
65569;BMP180;52211;50.154;8.682;2023-07-31T08:12:23;99675.00;;;24.50
65569;BMP180;52211;50.154;8.682;2023-07-31T08:14:52;99666.00;;;24.60
65569;BMP180;52211;50.154;8.682;2023-07-31T08:17:24;99674.00;;;24.60
65569;BMP180;52211;50.154;8.682;2023-07-31T08:19:51;99673.00;;;24.60
65569;BMP180;52211;50.154;8.682;2023-07-31T08:22:18;99661.00;;;24.70
65569;BMP180;52211;50.154;8.682;2023-07-31T08:24:44;99660.00;;;24.70
65569;BMP180;52211;50.154;8.682;2023-07-31T08:27:11;99645.00;;;24.80
65569;BMP180;52211;50.154;8.682;2023-07-31T08:29:41;99651.00;;;24.80
65569;BMP180;52211;50.154;8.682;2023-07-31T08:32:10;99652.00;;;24.90
65569;BMP180;52211;50.154;8.682;2023-07-31T08:34:39;99658.00;;;24.90
65569;BMP180;52211;50.154;8.682;2023-07-31T08:37:06;99650.00;;;24.90
65569;BMP180;52211;50.154;8.682;2023-07-31T08:39:33;99650.00;;;25.00
65569;BMP180;52211;50.154;8.682;2023-07-31T08:42:03;99645.00;;;25.00
65569;BMP180;52211;50.154;8.682;2023-07-31T08:44:35;99653.00;;;25.00
65569;BMP180;52211;50.154;8.682;2023-07-31T08:47:03;99646.00;;;25.10
65569;BMP180;52211;50.154;8.682;2023-07-31T08:49:31;99647.00;;;25.10
65569;BMP180;52211;50.154;8.682;2023-07-31T08:52:01;99650.00;;;25.10
65569;BMP180;52211;50.154;8.682;2023-07-31T08:54:29;99648.00;;;25.20
65569;BMP180;52211;50.154;8.682;2023-07-31T08:56:58;99645.00;;;25.30
65569;BMP180;52211;50.154;8.682;2023-07-31T08:59:34;99672.00;;;25.40
65569;BMP180;52211;50.154;8.682;2023-07-31T09:02:07;99654.00;;;25.50
65569;BMP180;52211;50.154;8.682;2023-07-31T09:04:37;99656.00;;;25.50
65569;BMP180;52211;50.154;8.682;2023-07-31T09:07:07;99650.00;;;25.60
65569;BMP180;52211;50.154;8.682;2023-07-31T09:09:41;99647.00;;;25.60
65569;BMP180;52211;50.154;8.682;2023-07-31T09:12:08;99643.00;;;25.60
65569;BMP180;52211;50.154;8.682;2023-07-31T09:14:38;99638.00;;;25.60
65569;BMP180;52211;50.154;8.682;2023-07-31T09:17:07;99647.00;;;25.60
65569;BMP180;52211;50.154;8.682;2023-07-31T09:19:37;99638.00;;;25.70
65569;BMP180;52211;50.154;8.682;2023-07-31T09:22:08;99641.00;;;25.70
65569;BMP180;52211;50.154;8.682;2023-07-31T09:24:37;99631.00;;;25.80
65569;BMP180;52211;50.154;8.682;2023-07-31T09:27:05;99628.00;;;25.80
65569;BMP180;52211;50.154;8.682;2023-07-31T09:29:39;99630.00;;;25.80
65569;BMP180;52211;50.154;8.682;2023-07-31T09:32:16;99630.00;;;25.80
65569;BMP180;52211;50.154;8.682;2023-07-31T09:34:44;99632.00;;;25.80
65569;BMP180;52211;50.154;8.682;2023-07-31T09:37:13;99617.00;;;25.70
65569;BMP180;52211;50.154;8.682;2023-07-31T09:39:50;99633.00;;;25.70
65569;BMP180;52211;50.154;8.682;2023-07-31T09:42:26;99640.00;;;25.60
65569;BMP180;52211;50.154;8.682;2023-07-31T09:44:53;99638.00;;;25.60
65569;BMP180;52211;50.154;8.682;2023-07-31T09:47:26;99631.00;;;25.50
65569;BMP180;52211;50.154;8.682;2023-07-31T09:49:55;99636.00;;;25.50
65569;BMP180;52211;50.154;8.682;2023-07-31T09:52:25;99630.00;;;25.40
65569;BMP180;52211;50.154;8.682;2023-07-31T09:54:53;99629.00;;;25.30
65569;BMP180;52211;50.154;8.682;2023-07-31T09:57:23;99612.00;;;25.30
65569;BMP180;52211;50.154;8.682;2023-07-31T09:59:54;99615.00;;;25.30
65569;BMP180;52211;50.154;8.682;2023-07-31T10:02:26;99602.00;;;25.20
65569;BMP180;52211;50.154;8.682;2023-07-31T10:04:57;99609.00;;;25.20
65569;BMP180;52211;50.154;8.682;2023-07-31T10:07:31;99586.00;;;25.20
65569;BMP180;52211;50.154;8.682;2023-07-31T10:10:04;99587.00;;;25.20
65569;BMP180;52211;50.154;8.682;2023-07-31T10:12:36;99584.00;;;25.30
65569;BMP180;52211;50.154;8.682;2023-07-31T10:15:09;99578.00;;;25.40
65569;BMP180;52211;50.154;8.682;2023-07-31T10:17:42;99582.00;;;25.50
65569;BMP180;52211;50.154;8.682;2023-07-31T10:20:11;99580.00;;;25.60
65569;BMP180;52211;50.154;8.682;2023-07-31T10:22:44;99594.00;;;25.70
65569;BMP180;52211;50.154;8.682;2023-07-31T10:25:14;99575.00;;;25.70
65569;BMP180;52211;50.154;8.682;2023-07-31T10:27:42;99576.00;;;25.80
65569;BMP180;52211;50.154;8.682;2023-07-31T10:30:22;99575.00;;;25.80
65569;BMP180;52211;50.154;8.682;2023-07-31T10:32:52;99562.00;;;25.90
65569;BMP180;52211;50.154;8.682;2023-07-31T10:35:24;99566.00;;;26.00
65569;BMP180;52211;50.154;8.682;2023-07-31T10:38:15;99569.00;;;26.00
65569;BMP180;52211;50.154;8.682;2023-07-31T10:40:44;99549.00;;;26.10
65569;BMP180;52211;50.154;8.682;2023-07-31T10:43:24;99555.00;;;26.10
65569;BMP180;52211;50.154;8.682;2023-07-31T10:45:59;99552.00;;;26.20
65569;BMP180;52211;50.154;8.682;2023-07-31T10:48:33;99552.00;;;26.10
65569;BMP180;52211;50.154;8.682;2023-07-31T10:51:00;99539.00;;;26.20
65569;BMP180;52211;50.154;8.682;2023-07-31T10:53:36;99550.00;;;26.20
65569;BMP180;52211;50.154;8.682;2023-07-31T10:56:10;99553.00;;;26.20
65569;BMP180;52211;50.154;8.682;2023-07-31T10:58:45;99538.00;;;26.30
65569;BMP180;52211;50.154;8.682;2023-07-31T11:01:16;99524.00;;;26.30
65569;BMP180;52211;50.154;8.682;2023-07-31T11:03:49;99530.00;;;26.30
65569;BMP180;52211;50.154;8.682;2023-07-31T11:06:21;99514.00;;;26.30
65569;BMP180;52211;50.154;8.682;2023-07-31T11:08:52;99525.00;;;26.40
65569;BMP180;52211;50.154;8.682;2023-07-31T11:11:22;99519.00;;;26.50
65569;BMP180;52211;50.154;8.682;2023-07-31T11:13:53;99521.00;;;26.60
65569;BMP180;52211;50.154;8.682;2023-07-31T11:16:24;99533.00;;;26.60
65569;BMP180;52211;50.154;8.682;2023-07-31T11:18:54;99519.00;;;26.70
65569;BMP180;52211;50.154;8.682;2023-07-31T11:21:24;99524.00;;;26.70
65569;BMP180;52211;50.154;8.682;2023-07-31T11:23:56;99525.00;;;26.80
65569;BMP180;52211;50.154;8.682;2023-07-31T11:26:25;99526.00;;;26.80
65569;BMP180;52211;50.154;8.682;2023-07-31T11:28:56;99517.00;;;26.80
65569;BMP180;52211;50.154;8.682;2023-07-31T11:31:25;99503.00;;;26.90
65569;BMP180;52211;50.154;8.682;2023-07-31T11:34:07;99514.00;;;27.00
65569;BMP180;52211;50.154;8.682;2023-07-31T11:36:36;99512.00;;;27.10
65569;BMP180;52211;50.154;8.682;2023-07-31T11:39:10;99515.00;;;27.20
65569;BMP180;52211;50.154;8.682;2023-07-31T11:41:41;99512.00;;;27.20
65569;BMP180;52211;50.154;8.682;2023-07-31T11:44:12;99513.00;;;27.30
65569;BMP180;52211;50.154;8.682;2023-07-31T11:47:00;99505.00;;;27.30
65569;BMP180;52211;50.154;8.682;2023-07-31T11:49:31;99513.00;;;27.30
65569;BMP180;52211;50.154;8.682;2023-07-31T11:51:58;99497.00;;;27.40
65569;BMP180;52211;50.154;8.682;2023-07-31T11:54:30;99493.00;;;27.40
65569;BMP180;52211;50.154;8.682;2023-07-31T11:56:57;99497.00;;;27.40
65569;BMP180;52211;50.154;8.682;2023-07-31T11:59:28;99497.00;;;27.50
65569;BMP180;52211;50.154;8.682;2023-07-31T12:01:55;99500.00;;;27.50
65569;BMP180;52211;50.154;8.682;2023-07-31T12:04:24;99482.00;;;27.50
65569;BMP180;52211;50.154;8.682;2023-07-31T12:06:56;99492.00;;;27.50
65569;BMP180;52211;50.154;8.682;2023-07-31T12:09:24;99483.00;;;27.50
65569;BMP180;52211;50.154;8.682;2023-07-31T12:11:53;99484.00;;;27.50
65569;BMP180;52211;50.154;8.682;2023-07-31T12:14:27;99476.00;;;27.50
65569;BMP180;52211;50.154;8.682;2023-07-31T12:17:00;99475.00;;;27.50
65569;BMP180;52211;50.154;8.682;2023-07-31T12:19:28;99469.00;;;27.50
65569;BMP180;52211;50.154;8.682;2023-07-31T12:21:56;99471.00;;;27.50
65569;BMP180;52211;50.154;8.682;2023-07-31T12:24:25;99468.00;;;27.50
65569;BMP180;52211;50.154;8.682;2023-07-31T12:26:52;99474.00;;;27.50
65569;BMP180;52211;50.154;8.682;2023-07-31T12:29:21;99473.00;;;27.50
65569;BMP180;52211;50.154;8.682;2023-07-31T12:31:51;99463.00;;;27.50
65569;BMP180;52211;50.154;8.682;2023-07-31T12:34:19;99468.00;;;27.40
65569;BMP180;52211;50.154;8.682;2023-07-31T12:36:49;99468.00;;;27.40
65569;BMP180;52211;50.154;8.682;2023-07-31T12:39:20;99461.00;;;27.40
65569;BMP180;52211;50.154;8.682;2023-07-31T12:41:47;99457.00;;;27.50
65569;BMP180;52211;50.154;8.682;2023-07-31T12:44:17;99453.00;;;27.50
65569;BMP180;52211;50.154;8.682;2023-07-31T12:46:46;99449.00;;;27.50
65569;BMP180;52211;50.154;8.682;2023-07-31T12:49:15;99435.00;;;27.50
65569;BMP180;52211;50.154;8.682;2023-07-31T12:51:44;99432.00;;;27.60
65569;BMP180;52211;50.154;8.682;2023-07-31T12:54:16;99434.00;;;27.60
65569;BMP180;52211;50.154;8.682;2023-07-31T12:56:44;99423.00;;;27.60
65569;BMP180;52211;50.154;8.682;2023-07-31T12:59:11;99417.00;;;27.80
65569;BMP180;52211;50.154;8.682;2023-07-31T13:01:41;99408.00;;;27.90
65569;BMP180;52211;50.154;8.682;2023-07-31T13:04:10;99394.00;;;28.20
65569;BMP180;52211;50.154;8.682;2023-07-31T13:06:40;99417.00;;;28.40
65569;BMP180;52211;50.154;8.682;2023-07-31T13:09:10;99418.00;;;28.60
65569;BMP180;52211;50.154;8.682;2023-07-31T13:11:37;99414.00;;;28.80
65569;BMP180;52211;50.154;8.682;2023-07-31T13:14:06;99416.00;;;28.90
65569;BMP180;52211;50.154;8.682;2023-07-31T13:16:33;99414.00;;;29.00
65569;BMP180;52211;50.154;8.682;2023-07-31T13:19:01;99408.00;;;29.00
65569;BMP180;52211;50.154;8.682;2023-07-31T13:21:28;99415.00;;;29.00
65569;BMP180;52211;50.154;8.682;2023-07-31T13:23:55;99414.00;;;29.00
65569;BMP180;52211;50.154;8.682;2023-07-31T13:26:24;99414.00;;;28.90
65569;BMP180;52211;50.154;8.682;2023-07-31T13:28:55;99411.00;;;28.90
65569;BMP180;52211;50.154;8.682;2023-07-31T13:31:22;99410.00;;;28.80
65569;BMP180;52211;50.154;8.682;2023-07-31T13:33:50;99418.00;;;28.70
65569;BMP180;52211;50.154;8.682;2023-07-31T13:36:19;99408.00;;;28.70
65569;BMP180;52211;50.154;8.682;2023-07-31T13:38:51;99408.00;;;28.70
65569;BMP180;52211;50.154;8.682;2023-07-31T13:41:20;99405.00;;;28.60
65569;BMP180;52211;50.154;8.682;2023-07-31T13:43:47;99406.00;;;28.60
65569;BMP180;52211;50.154;8.682;2023-07-31T13:46:14;99392.00;;;28.60
65569;BMP180;52211;50.154;8.682;2023-07-31T13:48:43;99399.00;;;28.60
65569;BMP180;52211;50.154;8.682;2023-07-31T13:51:13;99409.00;;;28.60
65569;BMP180;52211;50.154;8.682;2023-07-31T13:53:42;99400.00;;;28.50
65569;BMP180;52211;50.154;8.682;2023-07-31T13:56:08;99405.00;;;28.50
65569;BMP180;52211;50.154;8.682;2023-07-31T13:58:38;99403.00;;;28.40
65569;BMP180;52211;50.154;8.682;2023-07-31T14:01:04;99398.00;;;28.40
65569;BMP180;52211;50.154;8.682;2023-07-31T14:03:34;99411.00;;;28.30
65569;BMP180;52211;50.154;8.682;2023-07-31T14:06:03;99418.00;;;28.30
65569;BMP180;52211;50.154;8.682;2023-07-31T14:08:30;99399.00;;;28.30
65569;BMP180;52211;50.154;8.682;2023-07-31T14:11:00;99393.00;;;28.20
65569;BMP180;52211;50.154;8.682;2023-07-31T14:13:29;99389.00;;;28.20
65569;BMP180;52211;50.154;8.682;2023-07-31T14:15:58;99404.00;;;28.10
65569;BMP180;52211;50.154;8.682;2023-07-31T14:18:27;99391.00;;;28.10
65569;BMP180;52211;50.154;8.682;2023-07-31T14:20:59;99379.00;;;28.00
65569;BMP180;52211;50.154;8.682;2023-07-31T14:23:25;99380.00;;;27.90
65569;BMP180;52211;50.154;8.682;2023-07-31T14:25:55;99388.00;;;27.90